AirNav   Air Wisconsin Up To $57,000 Bonus
 
 1334 users online  

GA06 Monticello Sky Ranch Airport
Monticello, Georgia, USA

GOING TO MONTICELLO?


FAA INFORMATION EFFECTIVE 04 NOVEMBER 2021

Location

FAA Identifier: GA06
Lat/Long: 33-19-57.0000N 083-43-37.0000W
33-19.950000N 083-43.616667W
33.3325000,-83.7269444
(estimated)
Elevation: 690 ft. / 210 m (estimated)
Variation: 02W (1985)
From city: 3 miles NW of MONTICELLO, GA
Time zone: UTC -4 (UTC -5 during Standard Time)
Zip code: 31064

Airport Operations

Airport use: Private use. Permission required prior to landing
Activation date: 04/1970
Control tower: no
ARTCC: ATLANTA CENTER
FSS: MACON FLIGHT SERVICE STATION
Attendance: UNATNDD
Wind indicator: yes
Segmented circle: no

Airport Communications

WX AWOS-3 at CVC (19 nm N): 118.725 (770-385-7057)

Nearby radio navigation aids

VOR radial/distance  VOR name  Freq  Var
MCNr353/38.7MACON VORTAC114.2001E
ATLr122/39.7ATLANTA VORTAC116.9005W

 
NDB name  Hdg/Dist  Freq  Var  ID
ALCOVY174/18.037003WVOF ...- --- ..-.
CULVR295/30.538004WUMB ..- -- -...
BARROW COUNTY196/36.840405WBMW -... -- .--
PECAT092/38.131605WFFC ..-. ..-. -.-.

Airport Services

Parking: tiedowns

Runway Information

Runway 14/32

Dimensions: 3900 x 80 ft. / 1189 x 24 m
Surface: turf, in good condition
RUNWAY 14  RUNWAY 32
Traffic pattern: leftleft
Obstructions: 40 ft. trees, 70 ft. left of centerlinenone

Airport Ownership and Management from official FAA records

Ownership: Privately-owned
Owner: WILLIAM L. GARVEY
2466 HWY 212 WEST
MONTICELLO, GA 31064
Phone (706) 476-1242
706-476-1242
Manager: JOHN SLATE
85 PELICAN CIRCLE
MONTICELLO, GA 31064
Phone (770) 365-5288
770-365-5288

Airport Operational Statistics

Aircraft based on the field: 34
Single engine airplanes: 32
Ultralights: 2
    
Aircraft operations: 120/year *
83% local general aviation
17% transient general aviation
* for 12-month period ending 10 May 1982

Additional Remarks

FOR CD CTC ATLANTA APCH AT 678-364-6131.

Instrument Procedures

There are no published instrument procedures at GA06.

Some nearby airports with instrument procedures:

KCVC - Covington Municipal Airport (19 nm N)
52A - Madison Municipal Airport (21 nm NE)
KMLJ - Baldwin County Regional Airport (27 nm SE)
D73 - Cy Nunnally Memorial Airport (27 nm N)
6A2 - Griffin-Spalding County Airport (28 nm W)
 
Loc | Ops | Rwys | IFR | FBO | Links
Com | Nav | Svcs | Stats | Notes
Area around GA06 (Monticello Sky Ranch Airport)
 
Road maps at: MapQuest Bing Google
 
Aerial photo
WARNING: Photo may not be current or correct
Aerial photo of GA06 (Monticello Sky Ranch Airport)
Do you have a better or more recent aerial photo of Monticello Sky Ranch Airport that you would like to share? If so, please send us your photo.

 
Sectional chart

 
Airport distance calculator
Flying to Monticello Sky Ranch Airport? Find the distance to fly.

From to GA06

Sunrise and sunset
Times for 28-Nov-2021
 Local
(UTC-5)
 Zulu
(UTC)
Morning civil twilight06:5211:52
Sunrise07:1912:19
Sunset17:2722:27
Evening civil twilight17:5422:54

Current date and time
Zulu (UTC)  28-Nov-2021 22:03:37
Local (UTC-5)  28-Nov-2021 17:03:37
 
METAR
KCVC 
19nm N 
282139Z AUTO 26003KT 10SM CLR 13/01 A2995 RMK AO2
KMLJ 
27nm SE 
282155Z AUTO 22003KT 10SM CLR 13/04 A2998 RMK AO2
KD73 
27nm N 
282135Z AUTO 30003KT 10SM CLR 13/01 A2995 RMK AO2 T01260010
K6A2 
28nm W 
282155Z AUTO 28003KT 10SM CLR 11/01 A2998 RMK AO2
KHMP 
30nm W 
282155Z AUTO 00000KT 10SM CLR 12/02 A3002 RMK AO2 T01230022
K3J7 
33nm NE 
282155Z AUTO 26004KT 10SM CLR 13/01 A2994 RMK AO2
KOPN 
36nm SW 
282135Z AUTO 31006KT 10SM CLR 12/02 A3000 RMK AO2
TAF
KMCN 
39nm S 
281738Z 2818/2918 27007KT P6SM BKN080 FM290200 28006KT P6SM FEW250 FM291400 34008KT P6SM SKC
KATL 
40nm NW 
281955Z 2820/2924 30009KT P6SM FEW200 BKN250 FM290200 32008KT P6SM FEW250 FM291500 34009G19KT P6SM SKC FM292300 31007KT P6SM SKC
KAHN 
42nm NE 
281738Z 2818/2918 28006KT P6SM BKN250 FM290000 29006KT P6SM FEW250 FM291500 02004KT P6SM SKC FM291700 33004KT P6SM SKC
KWRB 
44nm S 
281700Z 2817/2923 VRB06KT 9999 BKN080 BKN150 QNH3001INS BECMG 2818/2819 29008KT 9999 BKN080 BKN150 QNH3010INS BECMG 2915/2916 31012KT 9999 FEW130 QNH3011INS TX13/2821Z TN03/2912Z
KPDK 
44nm NW 
281738Z 2818/2918 29007KT P6SM BKN250 FM290200 32006KT P6SM FEW250 FM291500 34009G19KT P6SM SKC
KFTY 
48nm NW 
281738Z 2818/2918 32007KT P6SM BKN250 FM290200 32006KT P6SM FEW250 FM291500 34008KT P6SM SKC
NOTAMs
Click for the latest NOTAMs
NOTAMs are issued by the DoD/FAA and will open in a separate window not controlled by AirNav.

 

 
 

Would you like to see your business listed on this page?

 If your business provides an interesting product or service to pilots, flight crews, aircraft, or users of the Monticello Sky Ranch Airport, you should consider listing it here.  To start the listing process, click on the button below
 
Add a business
 

Other Pages about Monticello Sky Ranch Airport

Update a link
 
Copyright © AirNav, LLC. All rights reserved. Privacy Policy  Contact